S32

Cooperstown Municipal Airport

Cooperstown, North Dakota, USA
METAR KS32 270735Z AUTO 09007KT 10SM CLR 18/11 A2976 RMK AO2
Observed Flight Rules
May-27 @ 07:35 UTC (14 minutes ago) Visual Flight Rules
Wind Visibility Clouds
90° at 7 knots 10 miles
  • Clear skies
Temperatures Readings
Current 18°C / 64°F
Dewpoint 11°C / 52°F
Humidity 64%
Altimeter 29.76" Hg
Pressure 1008 hPa
Elevation 684
METAR KS32 270735Z AUTO 09007KT 10SM CLR 18/11 A2976 RMK AO2
Observed Flight Rules
May-27 @ 07:35 UTC
(14 minutes ago)
VFR
Wind Visibility
90° at 7 knots 10 miles
Clouds
  • Clear skies
Temperature Dewpoint
18°C / 64°F 11°C / 52°F
Humidity Altimeter Pressure
64% 29.76" Hg 1008 hPa